• Join FlightAware (Why Join?)
  • Login
  • US Flag 
09:17PM EST


 

Airport Tracker/Info


-or-


 

Live Flight TrackerFlight Track Log ✈ N654DL ✈ 24-Apr-2013 ✈ KSFO - KATL

Flight Track Log - Related Links

Times and Time Zones

All times are in EDT time to prevent confusion due to time zone crossing. See the N654DL flight status page for this flight to view local times or setup timezone preferences in your user account.

Time Position Orientation Groundspeed Altitude Reporting Facility
EDT Latitude Longitude Course Direction KTS MPH feet Rate Location/Type
05:42PM 37.6333 -122.3667 63° Northeast 177 204 1,400  Level Northern Cal TRACON
05:43PM 37.6833 -122.3167 38° Northeast 224 258 3,200 2,340 Climbing Northern Cal TRACON
05:45PM 37.6169 -122.3839 119° Southeast  Level FlightAware Approximate
05:45PM 37.7453 -122.2069 54° Northeast 266 306 7,200  Level Oakland Center
05:46PM 37.6587 -122.2154 72° East  Level FlightAware Approximate
05:46PM 37.7706 -122.1156 71° East 277 319 10,000  Level Oakland Center
05:47PM 37.7127 -122.0515 63° Northeast  Level FlightAware Approximate
05:47PM 37.7994 -122.0119 71° East 310 357 11,400  Level Oakland Center
05:48PM 37.8333 -121.8903 71° East 364 419 13,300 2,040 Climbing Oakland Center
05:49PM 37.8681 -121.7625 71° East 384 442 15,700 2,220 Climbing Oakland Center
05:50PM 37.9042 -121.6322 71° East 391 450 17,900 2,100 Climbing Oakland Center
05:51PM 37.9478 -121.4742 71° East 404 465 20,100 1,860 Climbing Oakland Center
05:52PM 37.9856 -121.3328 71° East 422 486 21,800 1,560 Climbing Oakland Center
05:53PM 38.0253 -121.1886 71° East 434 499 23,300 1,440 Climbing Oakland Center
05:54PM 38.0650 -121.0389 71° East 448 516 24,800 1,320 Climbing Oakland Center
05:55PM 38.1042 -120.8850 72° East 458 527 26,100 1,140 Climbing Oakland Center
05:56PM 38.1417 -120.7247 73° East 473 544 27,200 1,260 Climbing Oakland Center
05:57PM 38.1886 -120.5281 73° East 486 559 28,700 1,500 Climbing Oakland Center
05:58PM 38.2278 -120.3656 73° East 486 559 30,300 1,080 Climbing Oakland Center
05:59PM 38.2669 -120.2025 73° East 484 557 31,000 300 Climbing Oakland Center
06:00PM 38.3058 -120.0392 73° East 485 558 31,000  Level Oakland Center
06:01PM 38.3433 -119.8753 74° East 484 557 31,000 300 Level Oakland Center
06:02PM 38.3806 -119.7083 74° East 488 562 31,700 900 Climbing Oakland Center
06:03PM 38.4200 -119.5403 73° East 485 558 32,900 600 Climbing Oakland Center
06:04PM 38.4575 -119.3756 74° East 485 558 33,000 480 Climbing Oakland Center
06:05PM 38.4947 -119.2069 74° East 493 567 33,900 960 Climbing Oakland Center
06:06PM 38.5214 -118.9989 81° East 499 574 35,000 540 Climbing Oakland Center
06:07PM 38.5381 -118.8261 83° East 495 570 35,000  Level Oakland Center
06:08PM 38.5553 -118.6522 83° East 496 571 35,000  Level Oakland Center
06:09PM 38.5731 -118.4781 83° East 497 572 35,000  Level Oakland Center
06:10PM 38.5889 -118.3022 83° East 501 577 35,000  Level Oakland Center
06:11PM 38.6056 -118.1267 83° East 502 578 35,000  Level Oakland Center
06:12PM 38.6225 -117.9394 83° East 500 575 35,000  Level Oakland Center
06:13PM 38.6389 -117.7611 83° East 502 578 35,000  Level Oakland Center
06:14PM 38.6539 -117.5822 84° East 502 578 35,000  Level Oakland Center
06:15PM 38.6694 -117.4039 84° East 502 578 35,000  Level Oakland Center
06:16PM 38.6836 -117.2611 83° East 502 578 35,000  Level Salt Lake Center
06:17PM 38.7103 -117.0833 79° East 504 580 35,000  Level Salt Lake Center
06:17PM 38.7161 -117.0486 78° East 503 579 35,000  Level Oakland Center
06:18PM 38.7422 -116.8714 79° East 503 579 35,000  Level Oakland Center
06:19PM 38.7633 -116.7283 79° East 506 582 35,000  Level Salt Lake Center
06:20PM 38.7897 -116.5508 79° East 506 582 35,000  Level Salt Lake Center
06:20PM 38.7997 -116.4789 80° East 508 585 35,000  Level Oakland Center
06:21PM 38.8142 -116.3725 80° East 507 583 35,000  Level Salt Lake Center
06:22PM 38.8408 -116.1922 79° East 512 589 35,000  Level Salt Lake Center
06:23PM 38.8647 -116.0128 80° East 511 588 35,000  Level Salt Lake Center
06:24PM 38.8906 -115.8322 80° East 513 590 35,000  Level Salt Lake Center
06:25PM 38.9197 -115.6158 80° East 512 589 35,000  Level Salt Lake Center
06:26PM 38.9442 -115.4347 80° East 514 592 35,000  Level Salt Lake Center
06:27PM 38.9706 -115.2456 80° East 518 596 35,000  Level Salt Lake Center
06:28PM 38.9961 -115.0625 80° East 521 600 35,000  Level Salt Lake Center
06:29PM 39.0186 -114.8806 81° East 518 596 35,000  Level Salt Lake Center
06:30PM 39.0431 -114.6969 80° East 519 597 35,000  Level Salt Lake Center
06:31PM 39.0667 -114.5114 81° East 524 603 35,000  Level Salt Lake Center
06:33PM 39.0903 -114.3272 81° East 523 602 35,000  Level Salt Lake Center
06:34PM 39.1128 -114.1433 81° East 521 600 35,000  Level Salt Lake Center
06:35PM 39.1406 -113.9206 81° East 524 603 35,000  Level Salt Lake Center
06:36PM 39.1628 -113.7364 81° East 521 600 35,000  Level Salt Lake Center
06:37PM 39.1844 -113.5500 81° East 524 603 35,000  Level Salt Lake Center
06:38PM 39.2067 -113.3650 81° East 524 603 35,000  Level Salt Lake Center
06:39PM 39.2275 -113.1800 82° East 522 601 35,100  Climbing Salt Lake Center
06:40PM 39.2489 -112.9942 81° East 523 602 35,000 -60 Descending Salt Lake Center
06:41PM 39.2689 -112.8064 82° East 526 605 35,000  Level Salt Lake Center
06:42PM 39.2925 -112.6014 81° East 523 602 35,000  Level Salt Lake Center
06:43PM 39.2992 -112.4175 87° East 518 596 35,000  Level Salt Lake Center
06:44PM 39.2906 -112.2322 93° East 519 597 35,000  Level Salt Lake Center
06:45PM 39.2808 -112.0478 94° East 518 596 35,000  Level Salt Lake Center
06:46PM 39.2672 -111.8261 94° East 520 598 35,000  Level Salt Lake Center
06:47PM 39.2569 -111.6419 94° East 519 597 35,000  Level Salt Lake Center
06:48PM 39.2475 -111.4581 94° East 518 596 35,000  Level Salt Lake Center
06:49PM 39.2344 -111.2656 95° East 522 601 35,000  Level Salt Lake Center
06:50PM 39.2228 -111.0875 95° East 523 602 35,000  Level Salt Lake Center
06:51PM 39.2100 -110.8814 95° East 518 596 35,000  Level Salt Lake Center
06:52PM 39.1983 -110.7050 95° East 518 596 35,000  Level Salt Lake Center
06:53PM 39.1914 -110.5869 94° East 516 594 35,000  Level Denver Center
06:54PM 39.1797 -110.4100 95° East 517 595 35,000  Level Denver Center
06:54PM 39.1750 -110.3231 94° East 517 595 35,000  Level Salt Lake Center
06:55PM 39.1611 -110.1164 95° East 521 600 35,000  Level Salt Lake Center
06:56PM 39.1483 -109.9381 95° East 523 602 35,000  Level Salt Lake Center
06:57PM 39.1403 -109.8467 96° East 521 600 35,000  Level Denver Center
06:58PM 39.1258 -109.6400 95° East 521 600 35,000  Level Denver Center
06:59PM 39.1119 -109.4625 96° East 522 601 35,000  Level Denver Center
07:00PM 39.0958 -109.2531 96° East 526 605 35,000  Level Denver Center
07:01PM 39.0817 -109.0747 96° East 528 608 35,000  Level Denver Center
07:02PM 39.0656 -108.8664 96° East 526 605 35,000  Level Denver Center
07:03PM 39.0500 -108.6864 96° East 531 611 35,000  Level Denver Center
07:04PM 39.0256 -108.4783 99° East 530 610 35,000  Level Denver Center
07:05PM 39.0061 -108.2981 98° East 533 613 35,000  Level Denver Center
07:06PM 38.9833 -108.0842 98° East 540 621 35,000  Level Denver Center
07:07PM 38.9625 -107.9008 98° East 542 624 35,000  Level Denver Center
07:08PM 38.9389 -107.6853 98° East 545 627 35,000  Level Denver Center
07:09PM 38.9161 -107.4997 99° East 549 632 35,000  Level Denver Center
07:10PM 38.8900 -107.2831 99° East 551 634 35,000  Level Denver Center
07:11PM 38.8669 -107.0828 98° East 558 642 35,000  Level Denver Center
07:12PM 38.8381 -106.8489 99° East 558 642 35,000  Level Denver Center
07:13PM 38.8139 -106.6514 99° East 563 648 35,000  Level Denver Center
07:14PM 38.7886 -106.4528 99° East 566 651 35,000  Level Denver Center
07:16PM 38.7631 -106.2531 99° East 570 656 35,000  Level Denver Center
07:17PM 38.7308 -106.0050 99° East 567 652 35,000  Level Denver Center
07:18PM 38.7058 -105.8033 99° East 570 656 35,000  Level Denver Center
07:19PM 38.6775 -105.6008 100° East 575 662 35,000  Level Denver Center
07:20PM 38.6519 -105.4006 99° East 571 657 35,000  Level Denver Center
07:21PM 38.6244 -105.2008 100° East 569 655 35,000  Level Denver Center
07:22PM 38.5978 -104.9986 100° East 574 661 35,000  Level Denver Center
07:23PM 38.5689 -104.7975 100° East 574 661 35,000  Level Denver Center
07:24PM 38.5461 -104.6286 100° East 574 661 35,000  Level Denver Center
07:25PM 38.5081 -104.3628 100° East 570 656 35,000  Level Denver Center
07:26PM 38.4794 -104.1636 100° East 568 654 35,000  Level Denver Center
07:27PM 38.4497 -103.9653 101° East 567 652 35,000  Level Denver Center
07:28PM 38.4200 -103.7647 101° East 573 659 35,000  Level Denver Center
07:29PM 38.3886 -103.5672 101° East 568 654 35,000  Level Denver Center
07:30PM 38.3567 -103.3592 101° East 573 659 35,000  Level Denver Center
07:31PM 38.3222 -103.1361 101° East 575 662 35,000  Level Denver Center
07:32PM 38.2931 -102.9472 101° East 572 658 35,000  Level Denver Center
07:33PM 38.2569 -102.7264 102° East 570 656 35,000  Level Denver Center
07:34PM 38.2264 -102.5367 102° East 572 658 35,000  Level Denver Center
07:35PM 38.1914 -102.3147 101° East 574 661 35,000  Level Denver Center
07:36PM 38.1592 -102.1261 102° East 572 658 35,000  Level Denver Center
07:37PM 38.1233 -101.9028 101° East 577 664 35,000  Level Denver Center
07:38PM 38.0911 -101.7136 102° East 574 661 35,000  Level Denver Center
07:39PM 38.0522 -101.4914 102° East 575 662 35,000  Level Denver Center
07:40PM 38.0194 -101.3014 102° East 576 663 35,000  Level Denver Center
07:41PM 37.9867 -101.1103 102° East 577 664 35,000  Level Denver Center
07:42PM 37.9469 -100.8869 103° East 576 663 35,000  Level Denver Center
07:44PM 37.9081 -100.6631 102° East 576 663 35,100  Climbing Kansas City Center
07:45PM 37.8656 -100.4753 106° East 573 659 35,000 -60 Descending Kansas City Center
07:46PM 37.8219 -100.2897 107° East 572 658 35,000  Level Kansas City Center
07:47PM 37.7731 -100.0742 106° East 572 658 35,000  Level Kansas City Center
07:48PM 37.7325 -99.8897 105° East 570 656 35,000  Level Kansas City Center
07:49PM 37.6842 -99.6719 106° East 573 659 35,000  Level Kansas City Center
07:50PM 37.6411 -99.4869 106° East 574 661 35,000  Level Kansas City Center
07:51PM 37.5983 -99.3036 106° East 575 662 35,000  Level Kansas City Center
07:52PM 37.5514 -99.1103 107° East 577 664 35,000  Level Kansas City Center
07:53PM 37.4950 -98.8775 107° East 581 669 35,000  Level Kansas City Center
07:54PM 37.4492 -98.6875 107° East 575 662 35,000  Level Kansas City Center
07:55PM 37.4036 -98.4961 107° East 574 661 35,000  Level Kansas City Center
07:56PM 37.3567 -98.3044 107° East 576 663 35,000  Level Kansas City Center
07:57PM 37.3100 -98.1133 107° East 577 664 35,000  Level Kansas City Center
07:58PM 37.2631 -97.9222 107° East 577 664 35,000  Level Kansas City Center
07:59PM 37.2053 -97.6958 108° East 575 662 35,000  Level Kansas City Center
08:00PM 37.1569 -97.5053 108° East 578 665 35,000  Level Kansas City Center
08:01PM 37.1094 -97.3158 107° East 575 662 35,000  Level Kansas City Center
08:02PM 37.0622 -97.1197 107° East 585 673 35,000  Level Kansas City Center
08:03PM 37.0097 -96.9361 110° East 569 655 35,000  Level Kansas City Center
08:04PM 36.9550 -96.7189 107° East 576 663 35,000  Level Kansas City Center
08:05PM 36.9053 -96.5283 108° East 577 664 35,000  Level Kansas City Center
08:06PM 36.8561 -96.3350 108° East 581 669 35,000  Level Kansas City Center
08:07PM 36.8069 -96.1453 108° East 576 663 35,000  Level Kansas City Center
08:08PM 36.7561 -95.9544 108° East 576 663 35,000  Level Kansas City Center
08:09PM 36.7047 -95.7653 109° East 574 661 35,000  Level Kansas City Center
08:10PM 36.6428 -95.5358 109° East 575 662 35,000  Level Kansas City Center
08:11PM 36.5958 -95.3622 109° East 575 662 35,000  Level Kansas City Center
08:12PM 36.5431 -95.1744 109° East 575 662 35,000  Level Kansas City Center
08:13PM 36.4836 -94.9631 109° East 573 659 35,000  Level Kansas City Center
08:14PM 36.4297 -94.7753 110° East 573 659 35,000  Level Kansas City Center
08:15PM 36.3761 -94.5881 110° East 574 661 35,000  Level Kansas City Center
08:16PM 36.3561 -94.5161 109° East 568 654 35,000  Level Memphis Center
08:17PM 36.3039 -94.3331 109° East 573 659 35,000  Level Memphis Center
08:18PM 36.2511 -94.1478 109° East 573 659 35,000  Level Memphis Center
08:19PM 36.1983 -93.9653 110° East 573 659 35,000  Level Memphis Center
08:20PM 36.1514 -93.7783 107° East 573 659 35,000  Level Memphis Center
08:21PM 36.1000 -93.5964 109° East 573 659 35,000  Level Memphis Center
08:22PM 36.0483 -93.4119 109° East 573 659 35,000  Level Memphis Center
08:23PM 35.9942 -93.2331 110° East 567 652 35,000  Level Memphis Center
08:24PM 35.9442 -93.0467 108° East 567 652 35,000  Level Memphis Center
08:25PM 35.8878 -92.8475 109° East 567 652 35,000  Level Memphis Center
08:26PM 35.8350 -92.6642 110° East 567 652 35,000  Level Memphis Center
08:27PM 35.7797 -92.4858 111° Southeast 567 652 35,000  Level Memphis Center
08:28PM 35.7286 -92.3056 109° East 567 652 35,000  Level Memphis Center
08:29PM 35.6750 -92.1256 110° East 562 647 35,000  Level Memphis Center
08:30PM 35.6231 -91.9481 110° East 556 640 35,000  Level Memphis Center
08:31PM 35.5711 -91.7686 110° East 551 634 35,000  Level Memphis Center
08:32PM 35.5164 -91.5942 111° Southeast 551 634 35,000  Level Memphis Center
08:33PM 35.4639 -91.4150 110° East 551 634 35,000  Level Memphis Center
08:34PM 35.4111 -91.2411 110° East 551 634 35,000  Level Memphis Center
08:35PM 35.3558 -91.0672 111° Southeast 551 634 35,000  Level Memphis Center
08:36PM 35.3086 -90.9117 110° East 546 628 35,000  Level Memphis Center
08:37PM 35.2531 -90.7333 111° Southeast 551 634 35,000  Level Memphis Center
08:38PM 35.2011 -90.5603 110° East 551 634 35,000  Level Memphis Center
08:39PM 35.1450 -90.3875 112° Southeast 551 634 35,000  Level Memphis Center
08:40PM 35.0908 -90.2150 111° Southeast 551 634 35,000  Level Memphis Center
08:41PM 35.0361 -90.0400 111° Southeast 545 627 35,000  Level Memphis Center
08:42PM 34.9981 -89.8450 103° East 550 633 35,000  Level Memphis Center
08:43PM 34.9719 -89.6500 99° East 558 642 35,000  Level Memphis Center
08:44PM 34.9414 -89.4678 102° East 558 642 35,000  Level Memphis Center
08:45PM 34.9153 -89.3036 101° East 553 636 35,000  Level Memphis Center
08:46PM 34.8886 -89.1217 100° East 548 631 35,000  Level Memphis Center
08:47PM 34.8594 -88.9397 101° East 543 625 35,000  Level Memphis Center
08:48PM 34.8322 -88.7606 100° East 548 631 35,000  Level Memphis Center
08:49PM 34.8047 -88.5792 100° East 548 631 35,000  Level Memphis Center
08:50PM 34.7750 -88.4078 102° East 536 617 35,000  Level Memphis Center
08:51PM 34.7492 -88.2289 100° East 531 611 35,000  Level Memphis Center
08:52PM 34.7161 -88.0225 101° East 551 634 35,000  Level Memphis Center
08:53PM 34.6856 -87.8492 102° East 545 627 35,000 -600 Level Memphis Center
08:55PM 34.6217 -87.4439 101° East 519 597 33,000 -600 Descending Atlanta Center
08:56PM 34.5925 -87.2861 103° East 525 604 33,000  Level Atlanta Center
08:57PM 34.5594 -87.1133 103° East 525 604 33,000  Level Atlanta Center
08:58PM 34.5258 -86.9433 103° East 525 604 33,000  Level Atlanta Center
08:59PM 34.4925 -86.7683 103° East 525 604 33,000 -120 Level Atlanta Center
09:00PM 34.4586 -86.5983 104° East 525 604 32,800 -840 Descending Atlanta Center
09:01PM 34.4244 -86.4236 103° East 530 610 31,400 -1,380 Descending Atlanta Center
09:02PM 34.3922 -86.2489 103° East 530 610 30,100 -1,380 Descending Atlanta Center
09:03PM 34.3578 -86.0744 103° East 530 610 28,700 -1,380 Descending Atlanta Center
09:04PM 34.3228 -85.8975 103° East 530 610 27,400 -1,800 Descending Atlanta Center
09:05PM 34.2878 -85.7258 104° East 525 604 25,200 -2,400 Descending Atlanta Center
09:06PM 34.2544 -85.5592 104° East 519 597 22,700 -2,520 Descending Atlanta Center
09:07PM 34.2208 -85.3978 104° East 503 579 20,200 -2,400 Descending Atlanta Center
09:08PM 34.1892 -85.2417 104° East 484 557 17,900 -2,340 Descending Atlanta Center
09:09PM 34.1383 -85.0853 111° Southeast 468 539 15,600 -1,980 Descending Atlanta Center
09:10PM 34.0558 -84.9792 133° Southeast 435 501 14,000 -1,500 Descending Atlanta Center
09:11PM 33.9772 -84.8806 134° Southeast 417 480 12,700 -1,020 Descending Atlanta Center
09:12PM 33.9047 -84.7897 134° Southeast 395 455 12,000 -360 Descending Atlanta Center
09:13PM 33.8333 -84.7000 134° Southeast 344 396 12,000  Level Atlanta TRACON
09:14PM 33.7667 -84.6167 134° Southeast 273 314 12,100 -360 Climbing Atlanta TRACON
09:15PM 33.7333 -84.5333 116° Southeast 274 315 11,300 -1,560 Descending Atlanta TRACON
09:16PM 33.7333 -84.4500 90° East 281 323 9,000 -2,280 Descending Atlanta TRACON
09:17PM 33.7333 -84.3500 90° East 287 330 6,800 -2,220 Descending Atlanta TRACON
09:18PM 33.7333 -84.2667 90° East 269 310 4,600 -1,380 Descending Atlanta TRACON
09:19PM 33.6833 -84.2167 140° Southeast 225 259 4,100 -720 Descending Atlanta TRACON
09:20PM 33.6667 -84.2833 253° West 188 216 3,100 -960 Descending Atlanta TRACON